Language selection

My Weather Profile Weather Topics  | 

Whitefish Bay: Past 24 Hour Conditions

 

South Lake Huron - 45149

12:00 AM EDT 03 October 2022Buoy position: 43.55N 82.08W
Disclaimer

This table is a summary of hourly weather conditions for the past 24 hours.
Please note that these observations might not always be representative of weather conditions over their associated marine area.

Date / Time
(EDT)
Wind(knots) Wave height(m) Wave period(s) Pressure(kPa) Air tempC) Water tempC)
03 October 2022
0:00 ENE 13 gust 16 0.9 5.3 102.9 13 17
02 October 2022
23:00 ENE 14 gust 17 0.9 5.3 102.9 13 17
22:00 NE 15 gust 17 1.0 5.3 102.9 13 17
21:00 NE 15 gust 18 1.0 5.6 102.8 14 17
20:00 NNE 14 gust 17 1.2 5.1 102.8 15 17
19:00 N 18 gust 22 1.3 5.6 102.8 14 17
18:00 N 18 gust 23 1.2 5.3 102.7 14 17
17:00 N 18 gust 21 1.1 5.6 102.7 14 17
16:00 N 17 gust 21 1.1 5.1 102.8 13 17
15:00 N 15 gust 19 1.0 5.9 102.8 13 17
14:00 N 14 gust 17 1.1 6.3 102.8 13 17
13:00 NNE 12 gust 17 1.1 6.3 102.9 12 17
12:00 NNE 12 gust 15 1.2 6.5 102.9 12 17
11:00 NE 12 gust 15 1.3 6.7 102.9 11 17
10:00 NE 14 gust 17 1.5 7.1 102.8 10 17
9:00 NE 17 gust 23 1.5 6.7 102.7 10 17
8:00 NE 19 gust 23 1.7 6.9 102.7 11 17
7:00 NE 20 gust 24 1.6 6.9 102.6 11 17
6:00 NE 19 gust 23 1.5 6.9 102.5 12 17
5:00 NE 18 gust 22 1.6 7.1 102.5 12 17
4:00 NE 18 gust 23 1.5 6.9 102.4 13 17
3:00 NE 20 gust 24 1.6 7.1 102.4 14 17
2:00 NE 19 gust 24 1.6 6.9 102.4 14 17
1:00 NE 19 gust 23 1.6 6.7 102.4 15 17
0:00 NNE 19 gust 23 1.5 6.5 102.4 15 17

Zoom-in to make a selection

Map of Great Lakes - Lake Huron marine weather areas N Huron - 45003 W Erie - 45005 S Huron - 45008 Lake Ontario - 45012 Port Stanley - 45132 Prince Edward Point - 45135 Georgian Bay - 45137 Grimsby - 45139 Port Colborne - 45142 South Georgian Bay - 45143 Lake St Clair - 45147 South Lake Huron - 45149 Lake Simcoe - 45151 Lake Nipissing - 45152 North Channel - 45154 Ajax - 45159 Sault Ste. Marie Airport Killarney Greater Sudbury Airport North Bay Airport Gore Bay-Manitoulin Airport Great Duck Island Brockville Grenadier Island Kingston Airport Collingwood Lagoon City Muskoka Airport Parry Sound Harbour Lake Simcoe Regional Airport Wiarton Airport Western Islands Cove Island Goderich Sarnia Chris Hadfield Airport Tobermory Harrow AAFC Long Point Port Weller St. Catharines / Niagara District Airport Southeast Shoal Vineland Station Welland-Pelham Windsor Airport Port Colborne Erieau Point Pelee Burlington Lift Bridge Cobourg Hamilton Munro Int'l Airport Oshawa Executive Airport Point Petre Toronto City Centre Airport CFB Trenton Peterborough Municipal Airport
Legend:
buoy Buoy
land station Land Station

Great Lakes - Lake Huron Area

Another Region

What we are doing

Date modified: